sensor_id;sensor_type;location;lat;lon;timestamp;temperature;humidity
65406;DHT22;52016;51.228;-2.322;2022-08-07T00:01:31;19.70;49.60
65406;DHT22;52016;51.228;-2.322;2022-08-07T00:05:33;19.70;49.70
65406;DHT22;52016;51.228;-2.322;2022-08-07T00:09:18;19.50;49.90
65406;DHT22;52016;51.228;-2.322;2022-08-07T00:13:04;19.50;50.20
65406;DHT22;52016;51.228;-2.322;2022-08-07T00:17:06;19.40;50.30
65406;DHT22;52016;51.228;-2.322;2022-08-07T00:20:48;19.40;50.40
65406;DHT22;52016;51.228;-2.322;2022-08-07T00:24:30;19.40;50.60
65406;DHT22;52016;51.228;-2.322;2022-08-07T00:28:12;19.30;50.80
65406;DHT22;52016;51.228;-2.322;2022-08-07T00:31:56;19.30;50.90
65406;DHT22;52016;51.228;-2.322;2022-08-07T00:35:40;19.20;51.00
65406;DHT22;52016;51.228;-2.322;2022-08-07T00:39:25;19.10;51.00
65406;DHT22;52016;51.228;-2.322;2022-08-07T00:43:11;19.10;51.10
65406;DHT22;52016;51.228;-2.322;2022-08-07T00:47:14;19.10;51.60
65406;DHT22;52016;51.228;-2.322;2022-08-07T00:51:16;19.00;51.20
65406;DHT22;52016;51.228;-2.322;2022-08-07T00:54:58;18.90;51.30
65406;DHT22;52016;51.228;-2.322;2022-08-07T00:58:45;18.90;51.30
65406;DHT22;52016;51.228;-2.322;2022-08-07T01:02:31;18.90;51.30
65406;DHT22;52016;51.228;-2.322;2022-08-07T01:06:14;18.90;51.30
65406;DHT22;52016;51.228;-2.322;2022-08-07T01:09:58;18.80;51.40
65406;DHT22;52016;51.228;-2.322;2022-08-07T01:13:51;18.80;51.40
65406;DHT22;52016;51.228;-2.322;2022-08-07T01:17:36;18.70;51.40
65406;DHT22;52016;51.228;-2.322;2022-08-07T01:21:21;18.70;51.40
65406;DHT22;52016;51.228;-2.322;2022-08-07T01:25:08;18.60;51.40
65406;DHT22;52016;51.228;-2.322;2022-08-07T01:29:12;18.50;51.40
65406;DHT22;52016;51.228;-2.322;2022-08-07T01:32:55;18.40;51.50
65406;DHT22;52016;51.228;-2.322;2022-08-07T01:36:39;18.30;51.60
65406;DHT22;52016;51.228;-2.322;2022-08-07T01:40:22;18.30;51.60
65406;DHT22;52016;51.228;-2.322;2022-08-07T01:44:05;18.20;51.60
65406;DHT22;52016;51.228;-2.322;2022-08-07T01:47:47;18.20;51.60
65406;DHT22;52016;51.228;-2.322;2022-08-07T01:51:50;18.30;51.50
65406;DHT22;52016;51.228;-2.322;2022-08-07T01:55:48;18.30;51.30
65406;DHT22;52016;51.228;-2.322;2022-08-07T02:03:40;18.40;52.70
65406;DHT22;52016;51.228;-2.322;2022-08-07T02:07:51;18.30;51.60
65406;DHT22;52016;51.228;-2.322;2022-08-07T02:11:37;18.30;52.60
65406;DHT22;52016;51.228;-2.322;2022-08-07T02:15:39;18.20;51.30
65406;DHT22;52016;51.228;-2.322;2022-08-07T02:19:22;18.20;51.20
65406;DHT22;52016;51.228;-2.322;2022-08-07T02:23:26;18.20;51.20
65406;DHT22;52016;51.228;-2.322;2022-08-07T02:27:09;18.20;51.10
65406;DHT22;52016;51.228;-2.322;2022-08-07T02:30:55;18.10;51.10
65406;DHT22;52016;51.228;-2.322;2022-08-07T02:34:38;18.00;51.30
65406;DHT22;52016;51.228;-2.322;2022-08-07T02:38:35;17.90;51.50
65406;DHT22;52016;51.228;-2.322;2022-08-07T02:42:18;17.80;51.80
65406;DHT22;52016;51.228;-2.322;2022-08-07T02:46:03;17.90;51.60
65406;DHT22;52016;51.228;-2.322;2022-08-07T02:49:46;17.90;51.70
65406;DHT22;52016;51.228;-2.322;2022-08-07T02:53:41;17.90;51.40
65406;DHT22;52016;51.228;-2.322;2022-08-07T02:57:26;17.90;51.30
65406;DHT22;52016;51.228;-2.322;2022-08-07T03:01:15;17.90;51.30
65406;DHT22;52016;51.228;-2.322;2022-08-07T03:05:16;17.90;51.20
65406;DHT22;52016;51.228;-2.322;2022-08-07T03:09:05;17.90;51.20
65406;DHT22;52016;51.228;-2.322;2022-08-07T03:12:51;17.80;51.40
65406;DHT22;52016;51.228;-2.322;2022-08-07T03:16:36;17.80;51.40
65406;DHT22;52016;51.228;-2.322;2022-08-07T03:20:19;17.70;51.50
65406;DHT22;52016;51.228;-2.322;2022-08-07T03:24:02;17.60;51.70
65406;DHT22;52016;51.228;-2.322;2022-08-07T03:28:05;17.40;51.90
65406;DHT22;52016;51.228;-2.322;2022-08-07T03:32:11;17.40;52.00
65406;DHT22;52016;51.228;-2.322;2022-08-07T03:35:54;17.30;52.30
65406;DHT22;52016;51.228;-2.322;2022-08-07T03:39:37;17.20;52.20
65406;DHT22;52016;51.228;-2.322;2022-08-07T03:43:40;17.20;52.30
65406;DHT22;52016;51.228;-2.322;2022-08-07T03:47:38;17.20;52.30
65406;DHT22;52016;51.228;-2.322;2022-08-07T03:51:32;17.10;52.40
65406;DHT22;52016;51.228;-2.322;2022-08-07T03:55:29;17.10;52.50
65406;DHT22;52016;51.228;-2.322;2022-08-07T03:59:31;17.00;52.60
65406;DHT22;52016;51.228;-2.322;2022-08-07T04:03:13;17.00;52.70
65406;DHT22;52016;51.228;-2.322;2022-08-07T04:06:56;16.90;52.90
65406;DHT22;52016;51.228;-2.322;2022-08-07T04:10:41;16.90;53.00
65406;DHT22;52016;51.228;-2.322;2022-08-07T04:14:35;16.90;53.10
65406;DHT22;52016;51.228;-2.322;2022-08-07T04:18:28;16.80;53.20
65406;DHT22;52016;51.228;-2.322;2022-08-07T04:22:30;16.70;53.30
65406;DHT22;52016;51.228;-2.322;2022-08-07T04:26:14;16.70;53.40
65406;DHT22;52016;51.228;-2.322;2022-08-07T04:30:02;16.60;53.50
65406;DHT22;52016;51.228;-2.322;2022-08-07T04:33:54;16.60;53.80
65406;DHT22;52016;51.228;-2.322;2022-08-07T04:37:39;16.60;53.20
65406;DHT22;52016;51.228;-2.322;2022-08-07T04:41:41;16.60;53.20
65406;DHT22;52016;51.228;-2.322;2022-08-07T04:45:42;16.60;53.20
65406;DHT22;52016;51.228;-2.322;2022-08-07T04:49:46;16.60;54.10
65406;DHT22;52016;51.228;-2.322;2022-08-07T04:54:01;16.60;53.30
65406;DHT22;52016;51.228;-2.322;2022-08-07T05:02:06;16.50;54.00
65406;DHT22;52016;51.228;-2.322;2022-08-07T05:06:10;16.50;53.70
65406;DHT22;52016;51.228;-2.322;2022-08-07T05:10:21;16.50;54.60
65406;DHT22;52016;51.228;-2.322;2022-08-07T05:14:37;16.50;54.80
65406;DHT22;52016;51.228;-2.322;2022-08-07T05:18:52;16.40;54.80
65406;DHT22;52016;51.228;-2.322;2022-08-07T05:22:37;16.40;54.80
65406;DHT22;52016;51.228;-2.322;2022-08-07T05:26:22;16.40;53.60
65406;DHT22;52016;51.228;-2.322;2022-08-07T05:30:06;16.40;53.50
65406;DHT22;52016;51.228;-2.322;2022-08-07T05:33:51;16.50;53.40
65406;DHT22;52016;51.228;-2.322;2022-08-07T05:37:45;16.60;53.40
65406;DHT22;52016;51.228;-2.322;2022-08-07T05:41:48;16.50;53.40
65406;DHT22;52016;51.228;-2.322;2022-08-07T05:45:43;16.60;53.30
65406;DHT22;52016;51.228;-2.322;2022-08-07T05:49:28;16.70;53.20
65406;DHT22;52016;51.228;-2.322;2022-08-07T05:53:21;16.80;53.10
65406;DHT22;52016;51.228;-2.322;2022-08-07T05:57:24;16.90;53.00
65406;DHT22;52016;51.228;-2.322;2022-08-07T06:01:19;16.90;53.00
65406;DHT22;52016;51.228;-2.322;2022-08-07T06:05:06;16.90;53.10
65406;DHT22;52016;51.228;-2.322;2022-08-07T06:08:52;16.90;53.30
65406;DHT22;52016;51.228;-2.322;2022-08-07T06:12:36;16.90;53.30
65406;DHT22;52016;51.228;-2.322;2022-08-07T06:16:19;16.90;53.30
65406;DHT22;52016;51.228;-2.322;2022-08-07T06:20:09;17.00;53.30
65406;DHT22;52016;51.228;-2.322;2022-08-07T06:24:06;17.10;53.30
65406;DHT22;52016;51.228;-2.322;2022-08-07T06:28:09;17.10;53.20
65406;DHT22;52016;51.228;-2.322;2022-08-07T06:31:55;17.20;53.20
65406;DHT22;52016;51.228;-2.322;2022-08-07T06:35:37;17.20;53.40
65406;DHT22;52016;51.228;-2.322;2022-08-07T06:39:28;17.10;53.50
65406;DHT22;52016;51.228;-2.322;2022-08-07T06:43:30;17.30;53.50
65406;DHT22;52016;51.228;-2.322;2022-08-07T06:47:20;17.30;53.50
65406;DHT22;52016;51.228;-2.322;2022-08-07T06:51:06;17.30;53.60
65406;DHT22;52016;51.228;-2.322;2022-08-07T06:54:51;17.30;53.70
65406;DHT22;52016;51.228;-2.322;2022-08-07T06:58:53;17.40;53.60
65406;DHT22;52016;51.228;-2.322;2022-08-07T07:02:55;17.40;53.50
65406;DHT22;52016;51.228;-2.322;2022-08-07T07:06:42;17.40;53.70
65406;DHT22;52016;51.228;-2.322;2022-08-07T07:10:41;17.40;53.70
65406;DHT22;52016;51.228;-2.322;2022-08-07T07:14:48;17.60;53.50
65406;DHT22;52016;51.228;-2.322;2022-08-07T07:18:42;17.60;54.10
65406;DHT22;52016;51.228;-2.322;2022-08-07T07:22:29;17.70;54.30
65406;DHT22;52016;51.228;-2.322;2022-08-07T07:26:21;17.70;53.50
65406;DHT22;52016;51.228;-2.322;2022-08-07T07:30:17;17.90;53.40
65406;DHT22;52016;51.228;-2.322;2022-08-07T07:34:28;17.90;53.30
65406;DHT22;52016;51.228;-2.322;2022-08-07T07:38:13;17.90;53.90
65406;DHT22;52016;51.228;-2.322;2022-08-07T07:41:55;18.00;53.40
65406;DHT22;52016;51.228;-2.322;2022-08-07T07:45:54;18.00;53.40
65406;DHT22;52016;51.228;-2.322;2022-08-07T07:49:57;18.10;53.40
65406;DHT22;52016;51.228;-2.322;2022-08-07T07:54:01;18.20;53.40
65406;DHT22;52016;51.228;-2.322;2022-08-07T07:57:44;18.30;53.40
65406;DHT22;52016;51.228;-2.322;2022-08-07T08:01:37;18.30;53.50
65406;DHT22;52016;51.228;-2.322;2022-08-07T08:05:41;18.40;53.60
65406;DHT22;52016;51.228;-2.322;2022-08-07T08:09:36;18.50;53.30
65406;DHT22;52016;51.228;-2.322;2022-08-07T08:13:44;18.60;53.30
65406;DHT22;52016;51.228;-2.322;2022-08-07T08:17:36;18.70;53.60
65406;DHT22;52016;51.228;-2.322;2022-08-07T08:21:40;18.80;53.10
65406;DHT22;52016;51.228;-2.322;2022-08-07T08:25:45;19.00;53.00
65406;DHT22;52016;51.228;-2.322;2022-08-07T08:29:50;19.10;53.00
65406;DHT22;52016;51.228;-2.322;2022-08-07T08:33:38;19.20;52.90
65406;DHT22;52016;51.228;-2.322;2022-08-07T08:37:30;19.30;52.80
65406;DHT22;52016;51.228;-2.322;2022-08-07T08:41:42;19.40;52.70
65406;DHT22;52016;51.228;-2.322;2022-08-07T08:45:56;19.50;52.60
65406;DHT22;52016;51.228;-2.322;2022-08-07T08:53:53;19.60;52.40
65406;DHT22;52016;51.228;-2.322;2022-08-07T08:57:54;19.70;52.40
65406;DHT22;52016;51.228;-2.322;2022-08-07T09:01:43;19.80;52.80
65406;DHT22;52016;51.228;-2.322;2022-08-07T09:14:35;20.20;52.20
65406;DHT22;52016;51.228;-2.322;2022-08-07T09:56:32;21.30;49.40
65406;DHT22;52016;51.228;-2.322;2022-08-07T10:00:28;21.50;48.80
65406;DHT22;52016;51.228;-2.322;2022-08-07T10:04:42;21.60;49.10
65406;DHT22;52016;51.228;-2.322;2022-08-07T10:09:08;21.80;48.60
65406;DHT22;52016;51.228;-2.322;2022-08-07T10:41:43;22.70;46.60
65406;DHT22;52016;51.228;-2.322;2022-08-07T10:45:44;22.80;47.10
65406;DHT22;52016;51.228;-2.322;2022-08-07T10:49:46;22.90;46.10
65406;DHT22;52016;51.228;-2.322;2022-08-07T11:06:25;23.30;45.90
65406;DHT22;52016;51.228;-2.322;2022-08-07T11:10:19;23.40;44.80
65406;DHT22;52016;51.228;-2.322;2022-08-07T11:14:25;23.50;44.60
65406;DHT22;52016;51.228;-2.322;2022-08-07T11:27:00;23.70;44.60
65406;DHT22;52016;51.228;-2.322;2022-08-07T11:34:45;23.90;43.90
65406;DHT22;52016;51.228;-2.322;2022-08-07T11:38:42;24.00;44.40
65406;DHT22;52016;51.228;-2.322;2022-08-07T11:42:51;24.10;43.40
65406;DHT22;52016;51.228;-2.322;2022-08-07T11:59:40;25.40;42.70
65406;DHT22;52016;51.228;-2.322;2022-08-07T12:03:29;25.80;42.40
65406;DHT22;52016;51.228;-2.322;2022-08-07T12:07:33;26.20;41.50
65406;DHT22;52016;51.228;-2.322;2022-08-07T12:11:26;26.50;42.10
65406;DHT22;52016;51.228;-2.322;2022-08-07T12:15:15;26.90;41.50
65406;DHT22;52016;51.228;-2.322;2022-08-07T12:27:24;28.10;41.60
65406;DHT22;52016;51.228;-2.322;2022-08-07T12:31:56;28.30;39.60
65406;DHT22;52016;51.228;-2.322;2022-08-07T12:35:48;28.40;37.90
65406;DHT22;52016;51.228;-2.322;2022-08-07T12:39:40;28.50;39.40
65406;DHT22;52016;51.228;-2.322;2022-08-07T12:43:33;28.50;39.60
65406;DHT22;52016;51.228;-2.322;2022-08-07T12:51:44;29.10;38.00
65406;DHT22;52016;51.228;-2.322;2022-08-07T12:59:53;29.90;35.30
65406;DHT22;52016;51.228;-2.322;2022-08-07T13:12:03;30.50;37.60
65406;DHT22;52016;51.228;-2.322;2022-08-07T13:20:08;30.60;34.90
65406;DHT22;52016;51.228;-2.322;2022-08-07T13:28:11;30.90;33.60
65406;DHT22;52016;51.228;-2.322;2022-08-07T13:32:04;31.20;34.70
65406;DHT22;52016;51.228;-2.322;2022-08-07T13:36:24;31.60;34.90
65406;DHT22;52016;51.228;-2.322;2022-08-07T13:40:29;32.00;33.20
65406;DHT22;52016;51.228;-2.322;2022-08-07T13:44:24;32.20;32.50
65406;DHT22;52016;51.228;-2.322;2022-08-07T13:48:15;32.40;33.30
65406;DHT22;52016;51.228;-2.322;2022-08-07T13:52:15;32.50;33.80
65406;DHT22;52016;51.228;-2.322;2022-08-07T13:56:23;32.90;33.60
65406;DHT22;52016;51.228;-2.322;2022-08-07T14:00:16;33.30;31.50
65406;DHT22;52016;51.228;-2.322;2022-08-07T14:04:10;33.70;32.80
65406;DHT22;52016;51.228;-2.322;2022-08-07T14:07:53;33.70;32.00
65406;DHT22;52016;51.228;-2.322;2022-08-07T14:11:58;33.70;32.30
65406;DHT22;52016;51.228;-2.322;2022-08-07T14:15:55;34.00;30.80
65406;DHT22;52016;51.228;-2.322;2022-08-07T14:23:56;34.20;30.20
65406;DHT22;52016;51.228;-2.322;2022-08-07T14:27:47;34.40;29.70
65406;DHT22;52016;51.228;-2.322;2022-08-07T14:31:50;34.70;29.80
65406;DHT22;52016;51.228;-2.322;2022-08-07T14:35:38;35.00;30.70
65406;DHT22;52016;51.228;-2.322;2022-08-07T14:39:27;35.00;30.20
65406;DHT22;52016;51.228;-2.322;2022-08-07T14:43:33;34.90;30.50
65406;DHT22;52016;51.228;-2.322;2022-08-07T14:47:40;35.10;30.10
65406;DHT22;52016;51.228;-2.322;2022-08-07T14:51:28;35.30;30.30
65406;DHT22;52016;51.228;-2.322;2022-08-07T14:55:33;35.50;30.50
65406;DHT22;52016;51.228;-2.322;2022-08-07T14:59:36;35.60;30.20
65406;DHT22;52016;51.228;-2.322;2022-08-07T15:03:40;35.50;30.20
65406;DHT22;52016;51.228;-2.322;2022-08-07T15:07:33;35.50;30.20
65406;DHT22;52016;51.228;-2.322;2022-08-07T15:11:36;35.60;30.00
65406;DHT22;52016;51.228;-2.322;2022-08-07T15:15:41;35.60;29.40
65406;DHT22;52016;51.228;-2.322;2022-08-07T15:19:34;35.70;29.60
65406;DHT22;52016;51.228;-2.322;2022-08-07T15:23:39;35.80;29.50
65406;DHT22;52016;51.228;-2.322;2022-08-07T15:27:44;35.90;29.40
65406;DHT22;52016;51.228;-2.322;2022-08-07T15:31:49;36.20;29.00
65406;DHT22;52016;51.228;-2.322;2022-08-07T15:35:55;36.50;28.80
65406;DHT22;52016;51.228;-2.322;2022-08-07T15:39:50;36.70;28.40
65406;DHT22;52016;51.228;-2.322;2022-08-07T15:43:39;36.80;27.10
65406;DHT22;52016;51.228;-2.322;2022-08-07T15:47:38;36.80;28.20
65406;DHT22;52016;51.228;-2.322;2022-08-07T15:51:44;37.00;27.60
65406;DHT22;52016;51.228;-2.322;2022-08-07T15:55:42;37.10;27.30
65406;DHT22;52016;51.228;-2.322;2022-08-07T15:59:45;37.40;26.90
65406;DHT22;52016;51.228;-2.322;2022-08-07T16:03:30;37.50;26.90
65406;DHT22;52016;51.228;-2.322;2022-08-07T16:07:38;37.40;26.30
65406;DHT22;52016;51.228;-2.322;2022-08-07T16:15:42;38.00;26.40
65406;DHT22;52016;51.228;-2.322;2022-08-07T16:20:18;38.20;25.70
65406;DHT22;52016;51.228;-2.322;2022-08-07T16:33:11;38.20;24.40
65406;DHT22;52016;51.228;-2.322;2022-08-07T16:42:00;38.30;25.80
65406;DHT22;52016;51.228;-2.322;2022-08-07T16:50:44;38.80;25.10
65406;DHT22;52016;51.228;-2.322;2022-08-07T16:54:59;38.70;25.10
65406;DHT22;52016;51.228;-2.322;2022-08-07T16:59:00;38.50;26.00
65406;DHT22;52016;51.228;-2.322;2022-08-07T17:03:14;38.50;25.90
65406;DHT22;52016;51.228;-2.322;2022-08-07T17:07:31;38.40;25.00
65406;DHT22;52016;51.228;-2.322;2022-08-07T17:16:14;38.40;25.30
65406;DHT22;52016;51.228;-2.322;2022-08-07T17:20:06;38.50;25.90
65406;DHT22;52016;51.228;-2.322;2022-08-07T17:28:16;38.50;25.10
65406;DHT22;52016;51.228;-2.322;2022-08-07T17:32:27;38.50;25.30
65406;DHT22;52016;51.228;-2.322;2022-08-07T17:36:19;38.50;25.40
65406;DHT22;52016;51.228;-2.322;2022-08-07T17:40:20;38.50;25.90
65406;DHT22;52016;51.228;-2.322;2022-08-07T17:49:05;38.00;25.80
65406;DHT22;52016;51.228;-2.322;2022-08-07T17:53:04;37.90;25.90
65406;DHT22;52016;51.228;-2.322;2022-08-07T17:56:56;37.70;26.00
65406;DHT22;52016;51.228;-2.322;2022-08-07T18:00:40;37.60;26.20
65406;DHT22;52016;51.228;-2.322;2022-08-07T18:04:50;37.40;26.50
65406;DHT22;52016;51.228;-2.322;2022-08-07T18:13:02;36.50;26.70
65406;DHT22;52016;51.228;-2.322;2022-08-07T18:21:33;35.60;27.70
65406;DHT22;52016;51.228;-2.322;2022-08-07T18:25:37;35.30;28.00
65406;DHT22;52016;51.228;-2.322;2022-08-07T18:34:05;35.40;28.10
65406;DHT22;52016;51.228;-2.322;2022-08-07T18:43:04;35.30;28.30
65406;DHT22;52016;51.228;-2.322;2022-08-07T18:50:55;34.90;28.50
65406;DHT22;52016;51.228;-2.322;2022-08-07T18:54:52;34.60;28.80
65406;DHT22;52016;51.228;-2.322;2022-08-07T19:03:25;34.00;29.30
65406;DHT22;52016;51.228;-2.322;2022-08-07T19:07:45;32.90;30.20
65406;DHT22;52016;51.228;-2.322;2022-08-07T19:15:55;30.60;32.00
65406;DHT22;52016;51.228;-2.322;2022-08-07T19:20:03;29.90;33.10
65406;DHT22;52016;51.228;-2.322;2022-08-07T19:24:12;29.40;33.60
65406;DHT22;52016;51.228;-2.322;2022-08-07T19:28:14;29.00;33.50
65406;DHT22;52016;51.228;-2.322;2022-08-07T19:32:24;28.50;33.60
65406;DHT22;52016;51.228;-2.322;2022-08-07T19:36:25;28.20;33.90
65406;DHT22;52016;51.228;-2.322;2022-08-07T19:40:09;27.90;34.20
65406;DHT22;52016;51.228;-2.322;2022-08-07T19:43:53;27.70;34.40
65406;DHT22;52016;51.228;-2.322;2022-08-07T19:47:42;27.40;35.00
65406;DHT22;52016;51.228;-2.322;2022-08-07T19:51:32;27.10;35.40
65406;DHT22;52016;51.228;-2.322;2022-08-07T19:55:34;26.90;36.00
65406;DHT22;52016;51.228;-2.322;2022-08-07T19:59:36;26.60;36.20
65406;DHT22;52016;51.228;-2.322;2022-08-07T20:03:23;26.40;36.90
65406;DHT22;52016;51.228;-2.322;2022-08-07T20:07:16;26.10;37.50
65406;DHT22;52016;51.228;-2.322;2022-08-07T20:11:09;25.90;37.70
65406;DHT22;52016;51.228;-2.322;2022-08-07T20:14:56;25.80;38.20
65406;DHT22;52016;51.228;-2.322;2022-08-07T20:18:41;25.70;38.50
65406;DHT22;52016;51.228;-2.322;2022-08-07T20:22:27;25.60;38.80
65406;DHT22;52016;51.228;-2.322;2022-08-07T20:26:17;25.40;39.20
65406;DHT22;52016;51.228;-2.322;2022-08-07T20:30:12;25.40;40.00
65406;DHT22;52016;51.228;-2.322;2022-08-07T20:34:03;25.20;40.30
65406;DHT22;52016;51.228;-2.322;2022-08-07T20:37:49;25.20;40.30
65406;DHT22;52016;51.228;-2.322;2022-08-07T20:41:41;25.20;40.70
65406;DHT22;52016;51.228;-2.322;2022-08-07T20:45:24;25.00;40.80
65406;DHT22;52016;51.228;-2.322;2022-08-07T20:49:27;24.90;41.00
65406;DHT22;52016;51.228;-2.322;2022-08-07T20:53:34;24.90;41.00
65406;DHT22;52016;51.228;-2.322;2022-08-07T20:57:40;24.90;42.20
65406;DHT22;52016;51.228;-2.322;2022-08-07T21:01:40;24.80;42.00
65406;DHT22;52016;51.228;-2.322;2022-08-07T21:05:51;24.70;41.60
65406;DHT22;52016;51.228;-2.322;2022-08-07T21:09:37;24.70;41.80
65406;DHT22;52016;51.228;-2.322;2022-08-07T21:13:53;24.70;41.90
65406;DHT22;52016;51.228;-2.322;2022-08-07T21:17:57;24.60;43.20
65406;DHT22;52016;51.228;-2.322;2022-08-07T21:22:03;24.60;42.20
65406;DHT22;52016;51.228;-2.322;2022-08-07T21:26:00;24.50;43.30
65406;DHT22;52016;51.228;-2.322;2022-08-07T21:29:54;24.40;44.30
65406;DHT22;52016;51.228;-2.322;2022-08-07T21:33:43;24.30;44.20
65406;DHT22;52016;51.228;-2.322;2022-08-07T21:37:53;24.00;43.70
65406;DHT22;52016;51.228;-2.322;2022-08-07T21:41:53;23.90;46.70
65406;DHT22;52016;51.228;-2.322;2022-08-07T21:45:54;23.90;48.00
65406;DHT22;52016;51.228;-2.322;2022-08-07T21:50:07;23.80;46.80
65406;DHT22;52016;51.228;-2.322;2022-08-07T22:02:02;23.60;46.60
65406;DHT22;52016;51.228;-2.322;2022-08-07T22:05:57;23.60;47.10
65406;DHT22;52016;51.228;-2.322;2022-08-07T22:09:42;23.50;44.90
65406;DHT22;52016;51.228;-2.322;2022-08-07T22:13:36;23.50;45.40
65406;DHT22;52016;51.228;-2.322;2022-08-07T22:17:42;23.40;45.70
65406;DHT22;52016;51.228;-2.322;2022-08-07T22:21:38;23.30;48.10
65406;DHT22;52016;51.228;-2.322;2022-08-07T22:26:10;23.20;48.20
65406;DHT22;52016;51.228;-2.322;2022-08-07T22:29:57;23.20;49.20
65406;DHT22;52016;51.228;-2.322;2022-08-07T22:33:46;23.00;47.70
65406;DHT22;52016;51.228;-2.322;2022-08-07T22:37:58;22.90;48.80
65406;DHT22;52016;51.228;-2.322;2022-08-07T22:41:59;22.80;50.60
65406;DHT22;52016;51.228;-2.322;2022-08-07T22:50:23;22.60;51.00
65406;DHT22;52016;51.228;-2.322;2022-08-07T22:59:02;22.40;51.70
65406;DHT22;52016;51.228;-2.322;2022-08-07T23:06:53;22.30;50.50
65406;DHT22;52016;51.228;-2.322;2022-08-07T23:10:58;22.30;49.50
65406;DHT22;52016;51.228;-2.322;2022-08-07T23:14:58;22.20;49.00
65406;DHT22;52016;51.228;-2.322;2022-08-07T23:19:02;22.30;49.20
65406;DHT22;52016;51.228;-2.322;2022-08-07T23:31:30;22.10;48.80
65406;DHT22;52016;51.228;-2.322;2022-08-07T23:39:31;21.90;49.90
65406;DHT22;52016;51.228;-2.322;2022-08-07T23:51:30;21.90;51.80
